sensor_id;sensor_type;location;lat;lon;timestamp;P1;durP1;ratioP1;P2;durP2;ratioP2
39970;SDS011;35425;51.142;17.178;2022-12-16T00:00:05;26.15;;;19.70;;
39970;SDS011;35425;51.142;17.178;2022-12-16T00:02:32;24.20;;;19.10;;
39970;SDS011;35425;51.142;17.178;2022-12-16T00:04:59;24.17;;;18.85;;
39970;SDS011;35425;51.142;17.178;2022-12-16T00:07:25;24.95;;;18.45;;
39970;SDS011;35425;51.142;17.178;2022-12-16T00:09:52;24.80;;;19.05;;
39970;SDS011;35425;51.142;17.178;2022-12-16T00:12:19;24.75;;;19.45;;
39970;SDS011;35425;51.142;17.178;2022-12-16T00:14:46;24.27;;;19.98;;
39970;SDS011;35425;51.142;17.178;2022-12-16T00:17:12;25.25;;;19.65;;
39970;SDS011;35425;51.142;17.178;2022-12-16T00:19:39;24.58;;;19.35;;
39970;SDS011;35425;51.142;17.178;2022-12-16T00:22:05;24.50;;;19.77;;
39970;SDS011;35425;51.142;17.178;2022-12-16T00:24:31;26.20;;;20.15;;
39970;SDS011;35425;51.142;17.178;2022-12-16T00:26:58;25.48;;;19.10;;
39970;SDS011;35425;51.142;17.178;2022-12-16T00:29:24;25.77;;;19.98;;
39970;SDS011;35425;51.142;17.178;2022-12-16T00:31:51;27.02;;;20.40;;
39970;SDS011;35425;51.142;17.178;2022-12-16T00:34:19;25.08;;;19.75;;
39970;SDS011;35425;51.142;17.178;2022-12-16T00:36:46;26.92;;;20.58;;
39970;SDS011;35425;51.142;17.178;2022-12-16T00:39:12;24.08;;;19.17;;
39970;SDS011;35425;51.142;17.178;2022-12-16T00:41:39;25.13;;;20.15;;
39970;SDS011;35425;51.142;17.178;2022-12-16T00:44:05;26.45;;;20.17;;
39970;SDS011;35425;51.142;17.178;2022-12-16T00:46:32;23.15;;;18.67;;
39970;SDS011;35425;51.142;17.178;2022-12-16T00:48:58;24.75;;;19.00;;
39970;SDS011;35425;51.142;17.178;2022-12-16T00:51:25;25.15;;;19.75;;
39970;SDS011;35425;51.142;17.178;2022-12-16T00:53:51;23.80;;;19.15;;
39970;SDS011;35425;51.142;17.178;2022-12-16T00:56:19;23.55;;;18.98;;
39970;SDS011;35425;51.142;17.178;2022-12-16T00:58:45;25.70;;;19.60;;
39970;SDS011;35425;51.142;17.178;2022-12-16T01:01:12;24.30;;;18.67;;
39970;SDS011;35425;51.142;17.178;2022-12-16T01:03:38;23.27;;;18.88;;
39970;SDS011;35425;51.142;17.178;2022-12-16T01:06:07;22.70;;;18.73;;
39970;SDS011;35425;51.142;17.178;2022-12-16T01:08:33;22.40;;;18.80;;
39970;SDS011;35425;51.142;17.178;2022-12-16T01:11:00;23.77;;;19.33;;
39970;SDS011;35425;51.142;17.178;2022-12-16T01:13:26;23.77;;;18.73;;
39970;SDS011;35425;51.142;17.178;2022-12-16T01:15:53;24.60;;;18.98;;
39970;SDS011;35425;51.142;17.178;2022-12-16T01:18:20;25.65;;;18.88;;
39970;SDS011;35425;51.142;17.178;2022-12-16T01:20:46;24.50;;;18.58;;
39970;SDS011;35425;51.142;17.178;2022-12-16T01:23:13;23.30;;;18.73;;
39970;SDS011;35425;51.142;17.178;2022-12-16T01:25:39;26.00;;;19.05;;
39970;SDS011;35425;51.142;17.178;2022-12-16T01:28:05;23.63;;;18.70;;
39970;SDS011;35425;51.142;17.178;2022-12-16T01:30:33;23.92;;;19.08;;
39970;SDS011;35425;51.142;17.178;2022-12-16T01:32:59;24.75;;;18.88;;
39970;SDS011;35425;51.142;17.178;2022-12-16T01:35:26;23.70;;;19.02;;
39970;SDS011;35425;51.142;17.178;2022-12-16T01:38:12;22.80;;;18.15;;
39970;SDS011;35425;51.142;17.178;2022-12-16T01:40:39;21.90;;;17.63;;
39970;SDS011;35425;51.142;17.178;2022-12-16T01:43:11;24.25;;;19.38;;
39970;SDS011;35425;51.142;17.178;2022-12-16T01:45:39;23.35;;;18.92;;
39970;SDS011;35425;51.142;17.178;2022-12-16T01:48:21;22.58;;;18.73;;
39970;SDS011;35425;51.142;17.178;2022-12-16T01:50:51;23.35;;;18.85;;
39970;SDS011;35425;51.142;17.178;2022-12-16T01:53:20;22.20;;;17.73;;
39970;SDS011;35425;51.142;17.178;2022-12-16T01:55:47;22.33;;;17.98;;
39970;SDS011;35425;51.142;17.178;2022-12-16T01:58:19;20.65;;;17.30;;
39970;SDS011;35425;51.142;17.178;2022-12-16T02:00:47;21.00;;;17.35;;
39970;SDS011;35425;51.142;17.178;2022-12-16T02:03:14;22.33;;;17.27;;
39970;SDS011;35425;51.142;17.178;2022-12-16T02:05:41;22.75;;;18.25;;
39970;SDS011;35425;51.142;17.178;2022-12-16T02:13:27;21.92;;;18.00;;
39970;SDS011;35425;51.142;17.178;2022-12-16T02:16:10;23.63;;;17.35;;
39970;SDS011;35425;51.142;17.178;2022-12-16T02:31:56;21.73;;;16.60;;
39970;SDS011;35425;51.142;17.178;2022-12-16T02:37:08;22.45;;;17.42;;
39970;SDS011;35425;51.142;17.178;2022-12-16T02:39:41;23.02;;;18.45;;
39970;SDS011;35425;51.142;17.178;2022-12-16T02:44:52;23.85;;;18.40;;
39970;SDS011;35425;51.142;17.178;2022-12-16T02:47:19;25.13;;;18.95;;
39970;SDS011;35425;51.142;17.178;2022-12-16T02:49:47;25.08;;;19.45;;
39970;SDS011;35425;51.142;17.178;2022-12-16T02:52:13;25.02;;;19.85;;
39970;SDS011;35425;51.142;17.178;2022-12-16T02:54:41;25.65;;;19.58;;
39970;SDS011;35425;51.142;17.178;2022-12-16T02:59:59;23.73;;;19.23;;
39970;SDS011;35425;51.142;17.178;2022-12-16T03:02:35;25.42;;;19.67;;
39970;SDS011;35425;51.142;17.178;2022-12-16T03:05:13;24.73;;;19.08;;
39970;SDS011;35425;51.142;17.178;2022-12-16T03:07:41;22.10;;;18.40;;
39970;SDS011;35425;51.142;17.178;2022-12-16T03:10:11;22.77;;;18.23;;
39970;SDS011;35425;51.142;17.178;2022-12-16T03:12:39;25.38;;;19.65;;
39970;SDS011;35425;51.142;17.178;2022-12-16T03:15:08;24.40;;;19.50;;
39970;SDS011;35425;51.142;17.178;2022-12-16T03:17:35;23.25;;;18.95;;
39970;SDS011;35425;51.142;17.178;2022-12-16T03:20:06;22.52;;;17.85;;
39970;SDS011;35425;51.142;17.178;2022-12-16T03:22:34;23.58;;;18.25;;
39970;SDS011;35425;51.142;17.178;2022-12-16T03:25:04;22.15;;;17.30;;
39970;SDS011;35425;51.142;17.178;2022-12-16T03:27:41;23.08;;;18.70;;
39970;SDS011;35425;51.142;17.178;2022-12-16T03:30:28;23.15;;;17.88;;
39970;SDS011;35425;51.142;17.178;2022-12-16T03:37:50;22.27;;;17.48;;
39970;SDS011;35425;51.142;17.178;2022-12-16T03:40:18;21.67;;;17.35;;
39970;SDS011;35425;51.142;17.178;2022-12-16T03:42:45;22.27;;;17.48;;
39970;SDS011;35425;51.142;17.178;2022-12-16T03:45:13;22.00;;;17.65;;
39970;SDS011;35425;51.142;17.178;2022-12-16T03:47:42;20.98;;;17.60;;
39970;SDS011;35425;51.142;17.178;2022-12-16T03:50:13;23.52;;;18.30;;
39970;SDS011;35425;51.142;17.178;2022-12-16T03:52:39;22.20;;;17.30;;
39970;SDS011;35425;51.142;17.178;2022-12-16T03:55:06;21.23;;;17.20;;
39970;SDS011;35425;51.142;17.178;2022-12-16T03:57:32;21.55;;;16.58;;
39970;SDS011;35425;51.142;17.178;2022-12-16T03:59:59;23.08;;;17.23;;
39970;SDS011;35425;51.142;17.178;2022-12-16T04:02:26;23.98;;;18.73;;
39970;SDS011;35425;51.142;17.178;2022-12-16T04:04:53;22.08;;;17.70;;
39970;SDS011;35425;51.142;17.178;2022-12-16T04:07:19;22.02;;;17.95;;
39970;SDS011;35425;51.142;17.178;2022-12-16T04:09:46;24.95;;;18.38;;
39970;SDS011;35425;51.142;17.178;2022-12-16T04:12:13;19.75;;;16.52;;
39970;SDS011;35425;51.142;17.178;2022-12-16T04:14:58;23.20;;;18.55;;
39970;SDS011;35425;51.142;17.178;2022-12-16T04:17:43;21.30;;;17.52;;
39970;SDS011;35425;51.142;17.178;2022-12-16T04:20:29;22.02;;;17.52;;
39970;SDS011;35425;51.142;17.178;2022-12-16T04:23:16;21.33;;;17.05;;
39970;SDS011;35425;51.142;17.178;2022-12-16T04:26:01;21.00;;;17.67;;
39970;SDS011;35425;51.142;17.178;2022-12-16T04:28:28;22.02;;;17.40;;
39970;SDS011;35425;51.142;17.178;2022-12-16T04:30:54;21.45;;;16.85;;
39970;SDS011;35425;51.142;17.178;2022-12-16T04:33:21;21.73;;;17.35;;
39970;SDS011;35425;51.142;17.178;2022-12-16T04:36:06;20.98;;;17.08;;
39970;SDS011;35425;51.142;17.178;2022-12-16T04:38:52;23.15;;;17.23;;
39970;SDS011;35425;51.142;17.178;2022-12-16T04:41:37;22.05;;;16.75;;
39970;SDS011;35425;51.142;17.178;2022-12-16T04:44:22;21.45;;;16.55;;
39970;SDS011;35425;51.142;17.178;2022-12-16T04:47:07;20.52;;;16.10;;
39970;SDS011;35425;51.142;17.178;2022-12-16T04:49:52;20.65;;;17.25;;
39970;SDS011;35425;51.142;17.178;2022-12-16T04:52:37;19.42;;;15.60;;
39970;SDS011;35425;51.142;17.178;2022-12-16T04:55:22;18.67;;;15.45;;
39970;SDS011;35425;51.142;17.178;2022-12-16T04:58:07;20.35;;;15.82;;
39970;SDS011;35425;51.142;17.178;2022-12-16T05:00:52;20.08;;;15.38;;
39970;SDS011;35425;51.142;17.178;2022-12-16T05:03:37;20.52;;;15.63;;
39970;SDS011;35425;51.142;17.178;2022-12-16T05:06:21;18.58;;;14.60;;
39970;SDS011;35425;51.142;17.178;2022-12-16T05:09:07;18.30;;;14.10;;
39970;SDS011;35425;51.142;17.178;2022-12-16T05:11:52;18.65;;;14.52;;
39970;SDS011;35425;51.142;17.178;2022-12-16T05:14:37;18.27;;;14.13;;
39970;SDS011;35425;51.142;17.178;2022-12-16T05:17:22;17.10;;;13.85;;
39970;SDS011;35425;51.142;17.178;2022-12-16T05:20:07;17.85;;;13.85;;
39970;SDS011;35425;51.142;17.178;2022-12-16T05:23:06;15.70;;;12.93;;
39970;SDS011;35425;51.142;17.178;2022-12-16T05:25:51;17.63;;;13.85;;
39970;SDS011;35425;51.142;17.178;2022-12-16T05:28:35;15.30;;;13.32;;
39970;SDS011;35425;51.142;17.178;2022-12-16T05:31:20;16.45;;;12.57;;
39970;SDS011;35425;51.142;17.178;2022-12-16T05:34:06;16.65;;;13.68;;
39970;SDS011;35425;51.142;17.178;2022-12-16T05:36:52;15.98;;;13.00;;
39970;SDS011;35425;51.142;17.178;2022-12-16T05:39:37;15.35;;;12.68;;
39970;SDS011;35425;51.142;17.178;2022-12-16T05:42:22;15.18;;;12.88;;
39970;SDS011;35425;51.142;17.178;2022-12-16T05:45:07;16.90;;;13.38;;
39970;SDS011;35425;51.142;17.178;2022-12-16T05:47:52;15.40;;;12.25;;
39970;SDS011;35425;51.142;17.178;2022-12-16T05:50:37;16.17;;;13.20;;
39970;SDS011;35425;51.142;17.178;2022-12-16T05:53:22;15.73;;;11.90;;
39970;SDS011;35425;51.142;17.178;2022-12-16T05:56:07;14.05;;;11.75;;
39970;SDS011;35425;51.142;17.178;2022-12-16T05:58:52;15.50;;;12.65;;
39970;SDS011;35425;51.142;17.178;2022-12-16T06:01:37;16.05;;;12.27;;
39970;SDS011;35425;51.142;17.178;2022-12-16T06:04:22;15.50;;;12.90;;
39970;SDS011;35425;51.142;17.178;2022-12-16T06:07:08;15.48;;;12.88;;
39970;SDS011;35425;51.142;17.178;2022-12-16T06:09:53;15.90;;;12.93;;
39970;SDS011;35425;51.142;17.178;2022-12-16T06:12:38;16.10;;;13.45;;
39970;SDS011;35425;51.142;17.178;2022-12-16T06:15:23;15.82;;;12.70;;
39970;SDS011;35425;51.142;17.178;2022-12-16T06:18:08;17.63;;;13.48;;
39970;SDS011;35425;51.142;17.178;2022-12-16T06:20:53;16.35;;;12.80;;
39970;SDS011;35425;51.142;17.178;2022-12-16T06:23:57;16.52;;;13.00;;
39970;SDS011;35425;51.142;17.178;2022-12-16T06:26:42;15.95;;;13.02;;
39970;SDS011;35425;51.142;17.178;2022-12-16T06:29:27;16.83;;;12.98;;
39970;SDS011;35425;51.142;17.178;2022-12-16T06:32:12;15.45;;;12.20;;
39970;SDS011;35425;51.142;17.178;2022-12-16T06:34:57;15.63;;;13.27;;
39970;SDS011;35425;51.142;17.178;2022-12-16T06:37:45;14.95;;;12.55;;
39970;SDS011;35425;51.142;17.178;2022-12-16T06:40:30;16.35;;;12.43;;
39970;SDS011;35425;51.142;17.178;2022-12-16T06:43:15;14.85;;;12.23;;
39970;SDS011;35425;51.142;17.178;2022-12-16T06:46:01;14.75;;;12.13;;
39970;SDS011;35425;51.142;17.178;2022-12-16T06:48:46;15.32;;;12.40;;
39970;SDS011;35425;51.142;17.178;2022-12-16T06:51:31;16.55;;;13.15;;
39970;SDS011;35425;51.142;17.178;2022-12-16T06:54:16;15.18;;;11.95;;
39970;SDS011;35425;51.142;17.178;2022-12-16T06:57:01;14.57;;;12.70;;
39970;SDS011;35425;51.142;17.178;2022-12-16T06:59:46;15.55;;;12.32;;
39970;SDS011;35425;51.142;17.178;2022-12-16T07:02:31;15.15;;;12.05;;
39970;SDS011;35425;51.142;17.178;2022-12-16T07:05:16;14.60;;;12.23;;
39970;SDS011;35425;51.142;17.178;2022-12-16T07:08:01;14.27;;;11.95;;
39970;SDS011;35425;51.142;17.178;2022-12-16T07:10:46;14.15;;;11.82;;
39970;SDS011;35425;51.142;17.178;2022-12-16T07:13:41;15.77;;;13.10;;
39970;SDS011;35425;51.142;17.178;2022-12-16T07:16:26;15.82;;;12.85;;
39970;SDS011;35425;51.142;17.178;2022-12-16T07:19:12;15.18;;;12.32;;
39970;SDS011;35425;51.142;17.178;2022-12-16T07:21:57;15.05;;;12.40;;
39970;SDS011;35425;51.142;17.178;2022-12-16T07:24:42;15.23;;;12.07;;
39970;SDS011;35425;51.142;17.178;2022-12-16T07:27:27;16.33;;;13.15;;
39970;SDS011;35425;51.142;17.178;2022-12-16T07:30:12;17.85;;;14.20;;
39970;SDS011;35425;51.142;17.178;2022-12-16T07:32:56;18.58;;;14.65;;
39970;SDS011;35425;51.142;17.178;2022-12-16T07:35:42;19.27;;;14.93;;
39970;SDS011;35425;51.142;17.178;2022-12-16T07:38:27;18.08;;;15.23;;
39970;SDS011;35425;51.142;17.178;2022-12-16T07:44:05;19.65;;;16.13;;
39970;SDS011;35425;51.142;17.178;2022-12-16T07:46:50;20.73;;;16.90;;
39970;SDS011;35425;51.142;17.178;2022-12-16T07:49:35;19.55;;;17.17;;
39970;SDS011;35425;51.142;17.178;2022-12-16T07:52:20;19.65;;;16.65;;
39970;SDS011;35425;51.142;17.178;2022-12-16T07:55:05;21.50;;;17.88;;
39970;SDS011;35425;51.142;17.178;2022-12-16T07:57:50;22.30;;;18.10;;
39970;SDS011;35425;51.142;17.178;2022-12-16T08:00:35;22.73;;;17.67;;
39970;SDS011;35425;51.142;17.178;2022-12-16T08:03:21;22.20;;;18.35;;
39970;SDS011;35425;51.142;17.178;2022-12-16T08:06:07;24.73;;;18.70;;
39970;SDS011;35425;51.142;17.178;2022-12-16T08:08:52;25.38;;;18.02;;
39970;SDS011;35425;51.142;17.178;2022-12-16T08:11:37;24.25;;;18.10;;
39970;SDS011;35425;51.142;17.178;2022-12-16T08:14:22;27.67;;;19.50;;
39970;SDS011;35425;51.142;17.178;2022-12-16T08:17:07;22.65;;;17.95;;
39970;SDS011;35425;51.142;17.178;2022-12-16T08:19:54;24.02;;;18.83;;
39970;SDS011;35425;51.142;17.178;2022-12-16T08:22:39;25.95;;;19.08;;
39970;SDS011;35425;51.142;17.178;2022-12-16T08:25:24;24.88;;;19.23;;
39970;SDS011;35425;51.142;17.178;2022-12-16T08:28:09;26.65;;;19.55;;
39970;SDS011;35425;51.142;17.178;2022-12-16T08:30:54;25.52;;;20.17;;
39970;SDS011;35425;51.142;17.178;2022-12-16T08:33:39;26.17;;;19.52;;
39970;SDS011;35425;51.142;17.178;2022-12-16T08:36:24;26.40;;;20.05;;
39970;SDS011;35425;51.142;17.178;2022-12-16T08:39:09;24.30;;;19.33;;
39970;SDS011;35425;51.142;17.178;2022-12-16T08:41:54;22.40;;;18.40;;
39970;SDS011;35425;51.142;17.178;2022-12-16T08:44:39;24.25;;;18.90;;
39970;SDS011;35425;51.142;17.178;2022-12-16T08:47:24;23.33;;;17.50;;
39970;SDS011;35425;51.142;17.178;2022-12-16T08:50:09;22.88;;;18.73;;
39970;SDS011;35425;51.142;17.178;2022-12-16T08:52:54;23.90;;;18.77;;
39970;SDS011;35425;51.142;17.178;2022-12-16T08:55:39;22.88;;;17.95;;
39970;SDS011;35425;51.142;17.178;2022-12-16T08:58:26;22.42;;;17.02;;
39970;SDS011;35425;51.142;17.178;2022-12-16T09:01:11;22.95;;;17.73;;
39970;SDS011;35425;51.142;17.178;2022-12-16T09:03:56;23.48;;;18.90;;
39970;SDS011;35425;51.142;17.178;2022-12-16T09:06:41;22.52;;;17.77;;
39970;SDS011;35425;51.142;17.178;2022-12-16T09:09:26;22.80;;;17.67;;
39970;SDS011;35425;51.142;17.178;2022-12-16T09:12:11;22.50;;;17.48;;
39970;SDS011;35425;51.142;17.178;2022-12-16T09:14:56;22.85;;;17.70;;
39970;SDS011;35425;51.142;17.178;2022-12-16T09:17:41;21.10;;;16.83;;
39970;SDS011;35425;51.142;17.178;2022-12-16T09:20:26;20.50;;;16.88;;
39970;SDS011;35425;51.142;17.178;2022-12-16T09:23:11;20.92;;;16.08;;
39970;SDS011;35425;51.142;17.178;2022-12-16T09:25:57;20.40;;;16.65;;
39970;SDS011;35425;51.142;17.178;2022-12-16T09:28:42;20.98;;;16.42;;
39970;SDS011;35425;51.142;17.178;2022-12-16T09:31:27;22.23;;;16.92;;
39970;SDS011;35425;51.142;17.178;2022-12-16T09:34:12;23.38;;;17.48;;
39970;SDS011;35425;51.142;17.178;2022-12-16T09:36:57;19.52;;;16.02;;
39970;SDS011;35425;51.142;17.178;2022-12-16T09:39:42;20.02;;;16.17;;
39970;SDS011;35425;51.142;17.178;2022-12-16T09:51:05;19.63;;;15.70;;
39970;SDS011;35425;51.142;17.178;2022-12-16T09:53:50;22.23;;;16.88;;
39970;SDS011;35425;51.142;17.178;2022-12-16T09:56:35;21.42;;;16.40;;
39970;SDS011;35425;51.142;17.178;2022-12-16T09:59:24;19.45;;;15.23;;
39970;SDS011;35425;51.142;17.178;2022-12-16T10:02:12;20.92;;;15.98;;
39970;SDS011;35425;51.142;17.178;2022-12-16T10:04:58;20.75;;;15.60;;
39970;SDS011;35425;51.142;17.178;2022-12-16T10:07:49;20.42;;;16.05;;
39970;SDS011;35425;51.142;17.178;2022-12-16T10:14:06;19.67;;;15.68;;
39970;SDS011;35425;51.142;17.178;2022-12-16T10:17:02;21.98;;;16.85;;
39970;SDS011;35425;51.142;17.178;2022-12-16T10:22:51;22.60;;;17.88;;
39970;SDS011;35425;51.142;17.178;2022-12-16T10:25:39;25.05;;;17.52;;
39970;SDS011;35425;51.142;17.178;2022-12-16T10:31:15;23.20;;;17.13;;
39970;SDS011;35425;51.142;17.178;2022-12-16T10:34:01;26.60;;;18.83;;
39970;SDS011;35425;51.142;17.178;2022-12-16T10:36:46;24.15;;;18.02;;
39970;SDS011;35425;51.142;17.178;2022-12-16T10:39:40;27.15;;;19.58;;
39970;SDS011;35425;51.142;17.178;2022-12-16T10:45:20;23.75;;;18.17;;
39970;SDS011;35425;51.142;17.178;2022-12-16T10:48:07;23.05;;;17.70;;
39970;SDS011;35425;51.142;17.178;2022-12-16T10:50:54;25.20;;;18.10;;
39970;SDS011;35425;51.142;17.178;2022-12-16T10:53:39;26.05;;;19.35;;
39970;SDS011;35425;51.142;17.178;2022-12-16T10:59:09;23.88;;;18.38;;
39970;SDS011;35425;51.142;17.178;2022-12-16T11:04:40;24.42;;;19.10;;
39970;SDS011;35425;51.142;17.178;2022-12-16T11:07:26;25.45;;;19.48;;
39970;SDS011;35425;51.142;17.178;2022-12-16T11:13:20;24.23;;;18.45;;
39970;SDS011;35425;51.142;17.178;2022-12-16T11:16:07;25.33;;;18.30;;
39970;SDS011;35425;51.142;17.178;2022-12-16T11:18:52;24.95;;;19.02;;
39970;SDS011;35425;51.142;17.178;2022-12-16T11:21:38;22.08;;;17.10;;
39970;SDS011;35425;51.142;17.178;2022-12-16T11:24:42;23.88;;;18.45;;
39970;SDS011;35425;51.142;17.178;2022-12-16T11:27:27;23.92;;;18.10;;
39970;SDS011;35425;51.142;17.178;2022-12-16T11:30:16;24.60;;;18.77;;
39970;SDS011;35425;51.142;17.178;2022-12-16T11:33:22;23.23;;;17.98;;
39970;SDS011;35425;51.142;17.178;2022-12-16T11:36:21;24.27;;;17.80;;
39970;SDS011;35425;51.142;17.178;2022-12-16T11:39:09;22.58;;;17.30;;
39970;SDS011;35425;51.142;17.178;2022-12-16T11:41:58;25.30;;;18.98;;
39970;SDS011;35425;51.142;17.178;2022-12-16T11:44:48;23.10;;;18.23;;
39970;SDS011;35425;51.142;17.178;2022-12-16T11:47:42;24.42;;;18.42;;
39970;SDS011;35425;51.142;17.178;2022-12-16T11:50:29;21.52;;;17.73;;
39970;SDS011;35425;51.142;17.178;2022-12-16T11:56:07;23.80;;;18.42;;
39970;SDS011;35425;51.142;17.178;2022-12-16T11:58:57;23.45;;;18.25;;
39970;SDS011;35425;51.142;17.178;2022-12-16T12:01:51;23.60;;;18.45;;
39970;SDS011;35425;51.142;17.178;2022-12-16T12:04:37;21.30;;;16.90;;
39970;SDS011;35425;51.142;17.178;2022-12-16T12:16:33;22.23;;;17.85;;
39970;SDS011;35425;51.142;17.178;2022-12-16T12:19:24;24.90;;;18.48;;
39970;SDS011;35425;51.142;17.178;2022-12-16T12:25:14;21.90;;;18.23;;
39970;SDS011;35425;51.142;17.178;2022-12-16T12:34:22;21.23;;;17.52;;
39970;SDS011;35425;51.142;17.178;2022-12-16T12:37:12;23.25;;;19.10;;
39970;SDS011;35425;51.142;17.178;2022-12-16T12:40:24;22.48;;;18.00;;
39970;SDS011;35425;51.142;17.178;2022-12-16T12:43:09;21.42;;;17.27;;
39970;SDS011;35425;51.142;17.178;2022-12-16T12:46:11;22.00;;;17.52;;
39970;SDS011;35425;51.142;17.178;2022-12-16T12:51:51;21.83;;;17.00;;
39970;SDS011;35425;51.142;17.178;2022-12-16T12:54:47;22.55;;;16.90;;
39970;SDS011;35425;51.142;17.178;2022-12-16T12:57:36;23.20;;;18.33;;
39970;SDS011;35425;51.142;17.178;2022-12-16T13:00:23;23.23;;;18.40;;
39970;SDS011;35425;51.142;17.178;2022-12-16T13:05:54;20.60;;;17.23;;
39970;SDS011;35425;51.142;17.178;2022-12-16T13:08:41;22.20;;;17.55;;
39970;SDS011;35425;51.142;17.178;2022-12-16T13:11:27;21.38;;;17.85;;
39970;SDS011;35425;51.142;17.178;2022-12-16T13:17:12;21.50;;;17.45;;
39970;SDS011;35425;51.142;17.178;2022-12-16T13:19:57;22.50;;;17.52;;
39970;SDS011;35425;51.142;17.178;2022-12-16T13:22:43;21.98;;;17.80;;
39970;SDS011;35425;51.142;17.178;2022-12-16T13:25:48;21.33;;;17.15;;
39970;SDS011;35425;51.142;17.178;2022-12-16T13:28:37;22.75;;;18.08;;
39970;SDS011;35425;51.142;17.178;2022-12-16T13:31:23;22.85;;;17.77;;
39970;SDS011;35425;51.142;17.178;2022-12-16T13:37:01;23.25;;;18.50;;
39970;SDS011;35425;51.142;17.178;2022-12-16T13:39:59;25.67;;;19.23;;
39970;SDS011;35425;51.142;17.178;2022-12-16T13:48:29;23.23;;;19.05;;
39970;SDS011;35425;51.142;17.178;2022-12-16T13:54:19;25.52;;;19.48;;
39970;SDS011;35425;51.142;17.178;2022-12-16T13:57:07;23.45;;;17.98;;
39970;SDS011;35425;51.142;17.178;2022-12-16T13:59:54;23.48;;;18.30;;
39970;SDS011;35425;51.142;17.178;2022-12-16T14:02:40;24.20;;;18.00;;
39970;SDS011;35425;51.142;17.178;2022-12-16T14:05:27;22.77;;;18.67;;
39970;SDS011;35425;51.142;17.178;2022-12-16T14:08:16;21.80;;;17.63;;
39970;SDS011;35425;51.142;17.178;2022-12-16T14:11:02;22.05;;;17.25;;
39970;SDS011;35425;51.142;17.178;2022-12-16T14:14:50;23.98;;;18.15;;
39970;SDS011;35425;51.142;17.178;2022-12-16T14:17:03;23.45;;;17.85;;
39970;SDS011;35425;51.142;17.178;2022-12-16T14:19:59;22.83;;;17.80;;
39970;SDS011;35425;51.142;17.178;2022-12-16T14:25:54;25.35;;;19.42;;
39970;SDS011;35425;51.142;17.178;2022-12-16T14:28:40;23.00;;;18.15;;
39970;SDS011;35425;51.142;17.178;2022-12-16T14:31:29;23.77;;;17.83;;
39970;SDS011;35425;51.142;17.178;2022-12-16T14:37:11;22.30;;;18.42;;
39970;SDS011;35425;51.142;17.178;2022-12-16T14:39:56;22.77;;;18.35;;
39970;SDS011;35425;51.142;17.178;2022-12-16T14:42:41;23.02;;;18.88;;
39970;SDS011;35425;51.142;17.178;2022-12-16T14:45:30;22.67;;;18.30;;
39970;SDS011;35425;51.142;17.178;2022-12-16T14:57:13;24.05;;;18.38;;
39970;SDS011;35425;51.142;17.178;2022-12-16T15:00:14;20.83;;;17.63;;
39970;SDS011;35425;51.142;17.178;2022-12-16T15:03:01;20.88;;;17.45;;
39970;SDS011;35425;51.142;17.178;2022-12-16T15:05:47;23.35;;;18.02;;
39970;SDS011;35425;51.142;17.178;2022-12-16T15:08:35;21.77;;;16.73;;
39970;SDS011;35425;51.142;17.178;2022-12-16T15:11:21;22.70;;;17.85;;
39970;SDS011;35425;51.142;17.178;2022-12-16T15:14:08;22.13;;;16.83;;
39970;SDS011;35425;51.142;17.178;2022-12-16T15:16:55;22.60;;;17.60;;
39970;SDS011;35425;51.142;17.178;2022-12-16T15:19:42;22.58;;;18.20;;
39970;SDS011;35425;51.142;17.178;2022-12-16T15:22:30;21.48;;;16.98;;
39970;SDS011;35425;51.142;17.178;2022-12-16T15:25:23;21.92;;;17.45;;
39970;SDS011;35425;51.142;17.178;2022-12-16T15:28:27;20.42;;;16.95;;
39970;SDS011;35425;51.142;17.178;2022-12-16T15:31:25;21.42;;;17.67;;
39970;SDS011;35425;51.142;17.178;2022-12-16T15:37:17;21.85;;;17.08;;
39970;SDS011;35425;51.142;17.178;2022-12-16T15:40:04;20.05;;;16.30;;
39970;SDS011;35425;51.142;17.178;2022-12-16T15:43:00;20.48;;;16.60;;
39970;SDS011;35425;51.142;17.178;2022-12-16T15:45:50;22.10;;;16.70;;
39970;SDS011;35425;51.142;17.178;2022-12-16T15:48:35;22.80;;;17.23;;
39970;SDS011;35425;51.142;17.178;2022-12-16T15:54:25;20.67;;;16.25;;
39970;SDS011;35425;51.142;17.178;2022-12-16T15:57:31;20.80;;;17.05;;
39970;SDS011;35425;51.142;17.178;2022-12-16T16:00:20;22.15;;;17.17;;
39970;SDS011;35425;51.142;17.178;2022-12-16T16:03:16;23.55;;;17.70;;
39970;SDS011;35425;51.142;17.178;2022-12-16T16:06:02;22.17;;;17.27;;
39970;SDS011;35425;51.142;17.178;2022-12-16T16:08:50;23.15;;;17.60;;
39970;SDS011;35425;51.142;17.178;2022-12-16T16:11:35;23.52;;;17.70;;
39970;SDS011;35425;51.142;17.178;2022-12-16T16:14:20;23.70;;;18.35;;
39970;SDS011;35425;51.142;17.178;2022-12-16T16:17:23;22.83;;;18.17;;
39970;SDS011;35425;51.142;17.178;2022-12-16T16:20:12;24.00;;;18.25;;
39970;SDS011;35425;51.142;17.178;2022-12-16T16:23:01;24.65;;;18.40;;
39970;SDS011;35425;51.142;17.178;2022-12-16T16:25:46;24.38;;;18.65;;
39970;SDS011;35425;51.142;17.178;2022-12-16T16:28:32;23.02;;;17.98;;
39970;SDS011;35425;51.142;17.178;2022-12-16T16:31:17;22.38;;;18.17;;
39970;SDS011;35425;51.142;17.178;2022-12-16T16:34:02;23.25;;;18.38;;
39970;SDS011;35425;51.142;17.178;2022-12-16T16:36:47;23.30;;;18.10;;
39970;SDS011;35425;51.142;17.178;2022-12-16T16:39:35;22.88;;;17.83;;
39970;SDS011;35425;51.142;17.178;2022-12-16T16:42:21;25.73;;;18.25;;
39970;SDS011;35425;51.142;17.178;2022-12-16T16:45:06;25.20;;;18.85;;
39970;SDS011;35425;51.142;17.178;2022-12-16T16:47:53;23.35;;;18.52;;
39970;SDS011;35425;51.142;17.178;2022-12-16T16:50:40;23.27;;;18.15;;
39970;SDS011;35425;51.142;17.178;2022-12-16T16:53:24;24.50;;;18.33;;
39970;SDS011;35425;51.142;17.178;2022-12-16T16:56:09;23.30;;;17.88;;
39970;SDS011;35425;51.142;17.178;2022-12-16T16:58:55;21.80;;;17.50;;
39970;SDS011;35425;51.142;17.178;2022-12-16T17:01:40;24.98;;;19.15;;
39970;SDS011;35425;51.142;17.178;2022-12-16T17:04:25;22.65;;;17.70;;
39970;SDS011;35425;51.142;17.178;2022-12-16T17:07:10;25.25;;;18.17;;
39970;SDS011;35425;51.142;17.178;2022-12-16T17:09:57;22.33;;;17.15;;
39970;SDS011;35425;51.142;17.178;2022-12-16T17:12:42;23.10;;;17.25;;
39970;SDS011;35425;51.142;17.178;2022-12-16T17:15:31;24.02;;;19.27;;
39970;SDS011;35425;51.142;17.178;2022-12-16T17:18:17;23.92;;;18.10;;
39970;SDS011;35425;51.142;17.178;2022-12-16T17:23:54;23.50;;;17.92;;
39970;SDS011;35425;51.142;17.178;2022-12-16T17:26:43;23.55;;;17.42;;
39970;SDS011;35425;51.142;17.178;2022-12-16T17:29:35;23.00;;;17.88;;
39970;SDS011;35425;51.142;17.178;2022-12-16T17:32:21;22.88;;;17.35;;
39970;SDS011;35425;51.142;17.178;2022-12-16T17:35:07;22.98;;;17.52;;
39970;SDS011;35425;51.142;17.178;2022-12-16T17:37:52;23.30;;;17.77;;
39970;SDS011;35425;51.142;17.178;2022-12-16T17:40:37;22.95;;;17.40;;
39970;SDS011;35425;51.142;17.178;2022-12-16T17:43:22;22.45;;;17.42;;